createdAt,value
2019-04-29T00:02:26.658Z,99715.83
2019-04-29T00:07:31.252Z,99712.28
2019-04-29T00:12:36.080Z,99699.10
2019-04-29T00:17:49.145Z,99710.90
2019-04-29T00:22:53.592Z,99695.48
2019-04-29T00:27:59.024Z,99685.77
2019-04-29T00:33:03.674Z,99678.66
2019-04-29T00:38:26.726Z,99689.60
2019-04-29T00:43:35.891Z,99687.02
2019-04-29T00:48:41.738Z,99677.86
2019-04-29T00:53:48.644Z,99671.67
2019-04-29T00:58:53.205Z,99668.05
2019-04-29T01:03:57.835Z,99675.05
2019-04-29T01:09:03.647Z,99661.41
2019-04-29T01:14:10.393Z,99660.08
2019-04-29T01:19:15.040Z,99657.45
2019-04-29T01:24:19.643Z,99656.53
2019-04-29T01:29:27.022Z,99663.52
2019-04-29T01:34:39.140Z,99680.66
2019-04-29T01:40:03.250Z,99666.16
2019-04-29T01:45:09.532Z,99652.12
2019-04-29T01:50:14.281Z,99641.75
2019-04-29T01:55:19.755Z,99637.95
2019-04-29T02:00:24.321Z,99631.89
2019-04-29T02:05:28.870Z,99625.36
2019-04-29T02:10:35.379Z,99624.11
2019-04-29T02:15:39.977Z,99620.61
2019-04-29T02:20:44.505Z,99618.84
2019-04-29T02:25:50.524Z,99610.87
2019-04-29T02:30:55.480Z,99607.70
2019-04-29T02:35:59.930Z,99596.55
2019-04-29T02:41:12.528Z,99585.08
2019-04-29T02:46:17.047Z,99578.83
2019-04-29T02:51:39.566Z,99583.52
2019-04-29T02:56:48.493Z,99568.48
2019-04-29T03:01:57.683Z,99568.76
2019-04-29T03:07:02.207Z,99559.01
2019-04-29T03:12:06.905Z,99553.57
2019-04-29T03:17:11.623Z,99541.58
2019-04-29T03:22:16.240Z,99543.69
2019-04-29T03:27:20.640Z,99543.62
2019-04-29T03:32:26.161Z,99553.25
2019-04-29T03:37:30.651Z,99541.31
2019-04-29T03:42:35.285Z,99546.45
2019-04-29T03:47:39.719Z,99548.17
2019-04-29T03:52:44.306Z,99559.58
2019-04-29T04:04:13.317Z,99556.31
2019-04-29T04:09:22.185Z,99560.66
2019-04-29T04:14:27.317Z,99558.42
2019-04-29T04:19:35.675Z,99552.22
2019-04-29T04:24:41.437Z,99548.59
2019-04-29T04:29:45.880Z,99542.33
2019-04-29T04:34:50.381Z,99548.86
2019-04-29T04:39:55.051Z,99542.20
2019-04-29T04:44:59.539Z,99559.73
2019-04-29T04:50:06.090Z,99559.73
2019-04-29T04:55:12.000Z,99576.42
2019-04-29T05:00:22.595Z,99594.03
2019-04-29T05:11:43.989Z,99529.63
2019-04-29T05:16:48.534Z,99502.78
2019-04-29T05:21:53.694Z,99490.04
2019-04-29T05:26:59.373Z,99505.16
2019-04-29T05:32:04.087Z,99518.20
2019-04-29T05:37:19.340Z,99514.45
2019-04-29T05:42:23.791Z,99506.47
2019-04-29T05:47:32.948Z,99508.91
2019-04-29T05:52:39.649Z,99500.75
2019-04-29T05:57:45.317Z,99504.89
2019-04-29T06:02:49.738Z,99505.14
2019-04-29T06:07:56.224Z,99507.39
2019-04-29T06:13:00.371Z,99510.75
2019-04-29T06:18:04.900Z,99501.73
2019-04-29T06:23:09.658Z,99506.94
2019-04-29T06:28:14.098Z,99522.23
2019-04-29T06:33:18.662Z,99541.18
2019-04-29T06:38:24.702Z,99535.83
2019-04-29T06:43:30.671Z,99530.41
2019-04-29T06:48:35.181Z,99528.48
2019-04-29T06:53:39.656Z,99530.88
2019-04-29T06:58:44.224Z,99523.08
2019-04-29T07:03:48.680Z,99511.83
2019-04-29T07:08:53.557Z,99513.44
2019-04-29T07:13:59.338Z,99514.19
2019-04-29T07:19:03.821Z,99509.30
2019-04-29T07:24:08.323Z,99520.25
2019-04-29T07:29:12.785Z,99523.53
2019-04-29T07:34:18.288Z,99520.35
2019-04-29T07:39:26.750Z,99519.81
2019-04-29T07:44:43.399Z,99519.81
2019-04-29T07:49:36.813Z,99524.02
2019-04-29T07:54:41.270Z,99525.70
2019-04-29T07:59:45.705Z,99532.41
2019-04-29T08:04:50.143Z,99539.94
2019-04-29T08:09:54.750Z,99538.63
2019-04-29T08:15:07.618Z,99535.05
2019-04-29T08:20:08.703Z,99543.75
2019-04-29T08:25:13.644Z,99535.90
2019-04-29T08:30:18.424Z,99533.67
2019-04-29T08:35:23.025Z,99538.94
2019-04-29T08:40:27.755Z,99536.87
2019-04-29T08:45:34.720Z,99533.11
2019-04-29T08:50:40.340Z,99531.94
2019-04-29T08:55:45.044Z,99536.92
2019-04-29T09:00:51.412Z,99535.13
2019-04-29T09:06:05.244Z,99534.69
2019-04-29T09:11:03.502Z,99531.47
2019-04-29T09:16:09.274Z,99533.89
2019-04-29T09:21:13.808Z,99540.34
2019-04-29T09:26:24.448Z,99539.65
2019-04-29T09:31:29.370Z,99539.02
2019-04-29T09:36:33.878Z,99539.02
2019-04-29T09:41:39.990Z,99533.34
2019-04-29T09:46:44.692Z,99531.00
2019-04-29T09:51:49.275Z,99524.02
2019-04-29T09:56:56.460Z,99518.39
2019-04-29T10:02:18.675Z,99513.45
2019-04-29T10:07:23.251Z,99513.78
2019-04-29T10:12:27.828Z,99499.54
2019-04-29T10:17:41.173Z,99504.86
2019-04-29T10:22:45.704Z,99505.61
2019-04-29T10:27:50.278Z,99510.78
2019-04-29T10:32:54.919Z,99505.77
2019-04-29T10:38:02.821Z,99507.04
2019-04-29T10:43:15.470Z,99510.43
2019-04-29T10:48:25.014Z,99505.02
2019-04-29T10:53:29.598Z,99514.43
2019-04-29T10:58:35.572Z,99520.44
2019-04-29T11:03:42.077Z,99518.84
2019-04-29T11:08:51.232Z,99519.80
2019-04-29T11:13:57.652Z,99508.27
2019-04-29T11:19:05.284Z,99507.47
2019-04-29T11:24:10.376Z,99511.44
2019-04-29T11:29:16.698Z,99504.45
2019-04-29T11:34:25.550Z,99513.50
2019-04-29T11:39:30.166Z,99506.49
2019-04-29T11:44:34.759Z,99512.95
2019-04-29T11:49:40.915Z,99510.05
2019-04-29T11:54:45.375Z,99513.47
2019-04-29T11:59:57.182Z,99514.20
2019-04-29T12:05:04.258Z,99511.14
2019-04-29T12:10:10.597Z,99515.34
2019-04-29T12:15:19.692Z,99510.13
2019-04-29T12:20:28.763Z,99510.52
2019-04-29T12:25:36.405Z,99509.42
2019-04-29T12:30:41.252Z,99503.03
2019-04-29T12:35:53.111Z,99500.78
2019-04-29T12:41:20.160Z,99500.39
2019-04-29T12:46:16.390Z,99501.59
2019-04-29T12:51:21.059Z,99497.75
2019-04-29T12:56:43.072Z,99492.98
2019-04-29T13:01:52.101Z,99490.17
2019-04-29T13:07:09.857Z,99490.56
2019-04-29T13:12:19.743Z,99491.03
2019-04-29T13:17:22.485Z,99487.53
2019-04-29T13:22:26.988Z,99484.63
2019-04-29T13:27:31.466Z,99481.13
2019-04-29T13:32:36.085Z,99479.66
2019-04-29T13:37:40.967Z,99472.38
2019-04-29T13:42:49.175Z,99470.94
2019-04-29T13:48:01.870Z,99465.30
2019-04-29T13:53:05.412Z,99467.80
2019-04-29T13:58:10.263Z,99455.62
2019-04-29T14:03:28.109Z,99460.67
2019-04-29T14:08:32.690Z,99453.33
2019-04-29T14:13:39.004Z,99453.33
2019-04-29T14:18:48.249Z,99449.55
2019-04-29T14:23:50.703Z,99449.55
2019-04-29T14:28:55.548Z,99453.52
2019-04-29T14:34:01.747Z,99454.85
2019-04-29T14:39:13.074Z,99450.54
2019-04-29T14:44:30.234Z,99458.22
2019-04-29T14:49:39.821Z,99462.95
2019-04-29T14:54:44.698Z,99460.95
2019-04-29T14:59:49.521Z,99462.20
2019-04-29T15:04:54.266Z,99457.57
2019-04-29T15:09:59.026Z,99452.77
2019-04-29T15:15:08.089Z,99459.82
2019-04-29T15:20:17.454Z,99456.08
2019-04-29T15:25:22.561Z,99458.59
2019-04-29T15:30:31.701Z,99457.95
2019-04-29T15:35:34.216Z,99453.01
2019-04-29T15:40:43.141Z,99454.81
2019-04-29T15:45:47.301Z,99450.45
2019-04-29T15:50:51.813Z,99455.17
2019-04-29T15:56:06.716Z,99452.13
2019-04-29T16:01:13.074Z,99444.10
2019-04-29T16:06:21.609Z,99440.98
2019-04-29T16:11:40.053Z,99440.67
2019-04-29T16:16:44.698Z,99422.10
2019-04-29T16:21:49.140Z,99427.42
2019-04-29T16:26:53.976Z,99427.30
2019-04-29T16:32:02.637Z,99428.60
2019-04-29T16:37:05.200Z,99448.28
2019-04-29T16:48:12.776Z,99408.70
2019-04-29T16:53:17.526Z,99401.54
2019-04-29T16:58:22.246Z,99406.55
2019-04-29T17:03:26.819Z,99408.16
2019-04-29T17:08:33.005Z,99395.87
2019-04-29T17:13:37.617Z,99407.49
2019-04-29T17:18:42.708Z,99405.84
2019-04-29T17:23:47.502Z,99404.57
2019-04-29T17:29:11.863Z,99418.92
2019-04-29T17:34:11.938Z,99428.41
2019-04-29T17:39:17.711Z,99411.81
2019-04-29T17:44:33.895Z,99423.89
2019-04-29T17:50:02.109Z,99430.59
2019-04-29T17:55:15.209Z,99439.69
2019-04-29T18:00:42.178Z,99443.66
2019-04-29T18:05:57.989Z,99430.89
2019-04-29T18:11:08.105Z,99419.45
2019-04-29T18:16:19.090Z,99412.61
2019-04-29T18:21:29.173Z,99413.84
2019-04-29T18:26:35.839Z,99419.30
2019-04-29T18:31:40.533Z,99445.13
2019-04-29T18:36:45.802Z,99469.02
2019-04-29T18:41:50.413Z,99487.08
2019-04-29T18:53:17.525Z,99520.44
2019-04-29T18:58:22.039Z,99484.67
2019-04-29T19:03:40.403Z,99489.74
2019-04-29T19:08:46.096Z,99535.66
2019-04-29T19:13:52.081Z,99556.44
2019-04-29T19:19:01.602Z,99570.45
2019-04-29T19:24:04.892Z,99577.45
2019-04-29T19:29:11.001Z,99583.28
2019-04-29T19:35:18.532Z,99578.27
2019-04-29T19:40:25.843Z,99562.78
2019-04-29T19:51:49.734Z,99531.60
2019-04-29T19:57:03.575Z,99529.89
2019-04-29T20:02:09.571Z,99521.34
2019-04-29T20:07:11.272Z,99514.95
2019-04-29T20:12:17.829Z,99544.30
2019-04-29T20:17:31.244Z,99541.06
2019-04-29T20:22:37.411Z,99533.29
2019-04-29T20:27:43.448Z,99507.38
2019-04-29T20:32:50.430Z,99495.63
2019-04-29T20:37:56.720Z,99478.59
2019-04-29T20:43:01.443Z,99474.44
2019-04-29T20:48:11.072Z,99479.03
2019-04-29T20:53:23.358Z,99475.14
2019-04-29T20:58:32.798Z,99479.11
2019-04-29T21:03:41.041Z,99495.75
2019-04-29T21:08:50.701Z,99496.92
2019-04-29T21:14:05.472Z,99500.11
2019-04-29T21:19:11.201Z,99496.30
2019-04-29T21:24:18.607Z,99477.78
2019-04-29T21:29:21.992Z,99473.20
2019-04-29T21:34:37.066Z,99469.11
2019-04-29T21:39:38.101Z,99460.25
2019-04-29T21:44:42.617Z,99468.09
2019-04-29T21:49:49.932Z,99466.73
2019-04-29T21:54:54.594Z,99469.94
2019-04-29T21:59:59.532Z,99478.56
2019-04-29T22:05:09.628Z,99492.08
2019-04-29T22:10:15.255Z,99489.75
2019-04-29T22:15:29.800Z,99485.64
2019-04-29T22:20:26.301Z,99482.61
2019-04-29T22:25:30.902Z,99475.70
2019-04-29T22:30:35.505Z,99473.73
2019-04-29T22:35:40.910Z,99470.86
2019-04-29T22:40:45.735Z,99466.66
2019-04-29T22:45:50.262Z,99464.94
2019-04-29T22:50:55.640Z,99469.30
2019-04-29T22:56:00.121Z,99473.33
2019-04-29T23:01:06.785Z,99473.64
2019-04-29T23:06:12.152Z,99478.92
2019-04-29T23:11:16.579Z,99480.64
2019-04-29T23:16:21.052Z,99482.20
2019-04-29T23:21:46.685Z,99474.20
2019-04-29T23:26:54.892Z,99481.56
2019-04-29T23:32:03.806Z,99476.72
2019-04-29T23:37:05.887Z,99479.97
2019-04-29T23:42:12.016Z,99470.95
2019-04-29T23:47:17.772Z,99471.41
2019-04-29T23:52:22.362Z,99466.59
2019-04-29T23:57:28.451Z,99465.74
